createdAt,value
2018-08-03T00:00:17.488Z,19.33
2018-08-03T00:02:46.678Z,17.90
2018-08-03T00:05:15.765Z,15.73
2018-08-03T00:07:44.835Z,18.00
2018-08-03T00:10:13.945Z,22.57
2018-08-03T00:12:43.142Z,17.60
2018-08-03T00:15:12.194Z,24.00
2018-08-03T00:17:41.278Z,16.20
2018-08-03T00:20:10.328Z,19.60
2018-08-03T00:22:39.396Z,20.73
2018-08-03T00:25:09.056Z,21.30
2018-08-03T00:27:38.272Z,17.47
2018-08-03T00:30:07.749Z,21.30
2018-08-03T00:32:36.834Z,21.27
2018-08-03T00:35:05.912Z,21.40
2018-08-03T00:37:35.004Z,18.27
2018-08-03T00:40:04.128Z,17.67
2018-08-03T00:42:33.227Z,21.60
2018-08-03T00:45:02.300Z,15.93
2018-08-03T00:47:31.432Z,18.87
2018-08-03T00:50:00.540Z,16.90
2018-08-03T00:52:29.875Z,19.97
2018-08-03T00:54:59.132Z,17.77
2018-08-03T00:57:28.188Z,18.30
2018-08-03T00:59:57.307Z,19.60
2018-08-03T01:02:26.398Z,27.30
2018-08-03T01:04:55.527Z,17.63
2018-08-03T01:07:24.655Z,23.13
2018-08-03T01:09:53.752Z,18.10
2018-08-03T01:12:22.909Z,18.93
2018-08-03T01:14:52.185Z,17.23
2018-08-03T01:17:21.298Z,17.87
2018-08-03T01:19:50.409Z,20.93
2018-08-03T01:22:19.586Z,18.07
2018-08-03T01:24:48.717Z,18.20
2018-08-03T01:27:17.832Z,17.77
2018-08-03T01:29:47.004Z,18.73
2018-08-03T01:32:16.112Z,21.83
2018-08-03T01:34:45.212Z,18.90
2018-08-03T01:37:14.348Z,20.27
2018-08-03T01:39:43.516Z,18.13
2018-08-03T01:42:12.624Z,24.53
2018-08-03T01:44:41.829Z,20.20
2018-08-03T01:47:10.954Z,22.63
2018-08-03T01:49:40.082Z,18.10
2018-08-03T01:52:09.248Z,19.20
2018-08-03T01:54:38.308Z,20.23
2018-08-03T01:57:07.512Z,25.17
2018-08-03T01:59:36.604Z,20.40
2018-08-03T02:02:05.788Z,22.37
2018-08-03T02:04:34.870Z,21.83
2018-08-03T02:07:04.088Z,27.80
2018-08-03T02:09:33.156Z,21.97
2018-08-03T02:12:02.307Z,20.67
2018-08-03T02:14:31.398Z,20.67
2018-08-03T02:17:00.544Z,21.53
2018-08-03T02:19:29.603Z,22.53
2018-08-03T02:21:58.795Z,23.73
2018-08-03T02:24:27.933Z,21.20
2018-08-03T02:26:57.209Z,22.17
2018-08-03T02:29:26.263Z,23.90
2018-08-03T02:31:55.505Z,24.60
2018-08-03T02:34:24.546Z,21.87
2018-08-03T02:36:53.687Z,26.27
2018-08-03T02:39:22.752Z,22.37
2018-08-03T02:41:51.923Z,19.67
2018-08-03T02:44:21.022Z,22.73
2018-08-03T02:46:50.330Z,21.03
2018-08-03T02:49:19.545Z,20.20
2018-08-03T02:51:48.664Z,19.70
2018-08-03T02:54:17.800Z,20.37
2018-08-03T02:56:46.866Z,24.70
2018-08-03T02:59:15.965Z,21.77
2018-08-03T03:01:45.200Z,22.10
2018-08-03T03:04:14.304Z,21.20
2018-08-03T03:06:43.398Z,20.57
2018-08-03T03:09:13.036Z,23.60
2018-08-03T03:11:42.108Z,21.37
2018-08-03T03:14:11.252Z,23.67
2018-08-03T03:16:40.427Z,29.00
2018-08-03T03:19:09.503Z,22.03
2018-08-03T03:21:38.636Z,25.03
2018-08-03T03:24:07.736Z,23.43
2018-08-03T03:26:36.893Z,23.60
2018-08-03T03:29:05.999Z,25.20
2018-08-03T03:31:35.119Z,24.10
2018-08-03T03:34:04.212Z,28.37
2018-08-03T03:36:33.391Z,26.47
2018-08-03T03:39:02.520Z,22.00
2018-08-03T03:41:31.637Z,22.63
2018-08-03T03:44:00.771Z,28.60
2018-08-03T03:46:29.963Z,25.70
2018-08-03T03:48:59.081Z,21.13
2018-08-03T03:51:28.173Z,25.90
2018-08-03T03:53:57.258Z,31.37
2018-08-03T03:56:26.375Z,25.93
2018-08-03T03:58:55.483Z,22.80
2018-08-03T04:01:24.605Z,25.87
2018-08-03T04:03:54.152Z,23.67
2018-08-03T04:06:23.307Z,25.97
2018-08-03T04:08:52.486Z,28.20
2018-08-03T04:11:21.604Z,25.77
2018-08-03T04:13:50.930Z,23.83
2018-08-03T04:16:20.084Z,23.10
2018-08-03T04:18:49.177Z,26.87
2018-08-03T04:21:18.326Z,29.77
2018-08-03T04:23:47.448Z,25.50
2018-08-03T04:26:16.572Z,27.30
2018-08-03T04:28:45.685Z,20.83
2018-08-03T04:31:14.873Z,28.07
2018-08-03T04:33:43.980Z,24.30
2018-08-03T04:36:13.104Z,23.40
2018-08-03T04:38:42.236Z,23.07
2018-08-03T04:41:11.344Z,26.90
2018-08-03T04:43:40.456Z,27.10
2018-08-03T04:46:09.639Z,23.03
2018-08-03T04:48:38.870Z,24.67
2018-08-03T04:51:07.975Z,24.30
2018-08-03T04:53:37.069Z,25.90
2018-08-03T04:56:06.153Z,25.50
2018-08-03T04:58:35.289Z,23.43
2018-08-03T05:01:04.485Z,24.47
2018-08-03T05:03:33.729Z,26.07
2018-08-03T05:06:03.099Z,32.23
2018-08-03T05:08:32.286Z,21.90
2018-08-03T05:11:01.347Z,23.63
2018-08-03T05:13:30.495Z,20.73
2018-08-03T05:15:59.761Z,21.00
2018-08-03T05:18:28.973Z,29.93
2018-08-03T05:20:58.231Z,23.27
2018-08-03T05:23:27.511Z,24.53
2018-08-03T05:25:56.617Z,25.53
2018-08-03T05:28:25.723Z,26.83
2018-08-03T05:30:54.847Z,21.83
2018-08-03T05:33:23.997Z,21.80
2018-08-03T05:35:53.236Z,27.03
2018-08-03T05:38:22.368Z,27.77
2018-08-03T05:40:51.480Z,33.10
2018-08-03T05:43:20.594Z,32.97
2018-08-03T05:45:49.786Z,36.93
2018-08-03T05:48:18.964Z,25.37
2018-08-03T05:50:48.065Z,26.33
2018-08-03T05:53:17.222Z,26.23
2018-08-03T05:55:46.344Z,30.47
2018-08-03T05:58:15.550Z,34.87
2018-08-03T06:00:44.615Z,28.63
2018-08-03T06:03:13.846Z,33.70
2018-08-03T06:05:43.084Z,29.50
2018-08-03T06:08:12.292Z,31.03
2018-08-03T06:10:41.527Z,31.77
2018-08-03T06:13:10.812Z,26.80
2018-08-03T06:15:39.974Z,25.17
2018-08-03T06:18:09.098Z,30.37
2018-08-03T06:20:38.376Z,30.97
2018-08-03T06:23:07.523Z,30.23
2018-08-03T06:25:36.623Z,31.83
2018-08-03T06:28:05.999Z,31.83
2018-08-03T06:30:35.179Z,30.27
2018-08-03T06:33:04.363Z,31.40
2018-08-03T06:35:33.622Z,32.20
2018-08-03T06:38:02.768Z,25.03
2018-08-03T06:40:31.912Z,29.17
2018-08-03T06:43:01.073Z,33.23
2018-08-03T06:45:30.172Z,36.47
2018-08-03T06:47:59.473Z,29.77
2018-08-03T06:50:28.561Z,33.17
2018-08-03T06:52:57.877Z,32.27
2018-08-03T06:55:26.981Z,34.70
2018-08-03T06:57:56.093Z,36.97
2018-08-03T07:00:25.219Z,30.30
2018-08-03T07:02:54.429Z,29.50
2018-08-03T07:05:23.468Z,32.70
2018-08-03T07:07:52.570Z,28.43
2018-08-03T07:10:21.667Z,25.80
2018-08-03T07:12:51.031Z,33.40
2018-08-03T07:15:20.169Z,37.53
2018-08-03T07:17:49.232Z,29.70
2018-08-03T07:20:18.409Z,36.07
2018-08-03T07:22:47.548Z,31.60
2018-08-03T07:25:16.652Z,33.53
2018-08-03T07:27:45.905Z,31.70
2018-08-03T07:30:15.026Z,27.23
2018-08-03T07:32:44.132Z,35.97
2018-08-03T07:35:13.236Z,33.50
2018-08-03T07:37:42.402Z,35.47
2018-08-03T07:40:11.570Z,27.63
2018-08-03T07:42:40.620Z,29.83
2018-08-03T07:45:09.820Z,28.20
2018-08-03T07:47:38.967Z,34.40
2018-08-03T07:50:08.143Z,24.90
2018-08-03T07:52:37.313Z,23.50
2018-08-03T07:55:06.463Z,30.07
2018-08-03T07:57:35.825Z,25.43
2018-08-03T08:00:05.895Z,33.03
2018-08-03T08:02:35.001Z,29.00
2018-08-03T08:05:04.149Z,31.00
2018-08-03T08:07:33.301Z,27.90
2018-08-03T08:10:02.403Z,26.73
2018-08-03T08:12:31.531Z,24.30
2018-08-03T08:15:00.666Z,24.13
2018-08-03T08:17:29.901Z,24.33
2018-08-03T08:19:59.168Z,28.73
2018-08-03T08:22:28.236Z,26.03
2018-08-03T08:24:57.938Z,23.37
2018-08-03T08:27:27.108Z,28.47
2018-08-03T08:29:56.269Z,33.43
2018-08-03T08:32:25.389Z,22.13
2018-08-03T08:34:54.690Z,26.20
2018-08-03T08:37:23.897Z,28.53
2018-08-03T08:39:53.057Z,25.83
2018-08-03T08:42:22.528Z,31.33
2018-08-03T08:44:51.669Z,26.10
2018-08-03T08:47:20.737Z,23.57
2018-08-03T08:49:49.954Z,21.97
2018-08-03T08:52:19.128Z,28.23
2018-08-03T08:54:48.366Z,29.10
2018-08-03T08:57:17.392Z,28.33
2018-08-03T08:59:46.608Z,27.70
2018-08-03T09:02:15.851Z,26.53
2018-08-03T09:04:44.961Z,23.93
2018-08-03T09:07:14.032Z,29.53
2018-08-03T09:09:43.178Z,23.03
2018-08-03T09:12:12.348Z,23.13
2018-08-03T09:14:41.429Z,25.77
2018-08-03T09:17:10.879Z,30.63
2018-08-03T09:19:40.079Z,21.40
2018-08-03T09:22:09.314Z,27.03
2018-08-03T09:24:38.579Z,28.50
2018-08-03T09:27:07.705Z,23.37
2018-08-03T09:29:36.916Z,33.00
2018-08-03T09:32:06.081Z,27.93
2018-08-03T09:34:35.197Z,29.20
2018-08-03T09:37:04.399Z,28.90
2018-08-03T09:39:33.561Z,24.10
2018-08-03T09:42:02.911Z,25.27
2018-08-03T09:44:32.108Z,28.43
2018-08-03T09:47:01.324Z,24.93
2018-08-03T09:49:30.396Z,26.07
2018-08-03T09:51:59.592Z,36.67
2018-08-03T09:54:28.899Z,27.17
2018-08-03T09:56:58.039Z,27.70
2018-08-03T09:59:27.128Z,27.07
2018-08-03T10:01:56.363Z,34.97
2018-08-03T10:04:25.551Z,32.17
2018-08-03T10:06:54.615Z,29.80
2018-08-03T10:09:23.735Z,26.17
2018-08-03T10:11:53.057Z,24.93
2018-08-03T10:14:22.199Z,24.70
2018-08-03T10:16:51.376Z,27.53
2018-08-03T10:19:20.644Z,23.33
2018-08-03T10:21:49.847Z,26.10
2018-08-03T10:24:18.983Z,27.07
2018-08-03T10:26:48.154Z,22.73
2018-08-03T10:29:17.732Z,26.63
2018-08-03T10:31:46.920Z,22.80
2018-08-03T10:34:16.098Z,23.87
2018-08-03T10:36:45.259Z,22.40
2018-08-03T10:39:14.321Z,22.40
2018-08-03T10:41:43.438Z,27.40
2018-08-03T10:44:12.724Z,21.47
2018-08-03T10:46:41.883Z,18.53
2018-08-03T10:49:11.030Z,21.77
2018-08-03T10:51:40.308Z,18.23
2018-08-03T10:54:09.391Z,20.47
2018-08-03T10:56:38.678Z,18.07
2018-08-03T10:59:07.798Z,19.30
2018-08-03T11:01:36.991Z,20.50
2018-08-03T11:04:06.300Z,21.87
2018-08-03T11:06:35.547Z,18.30
2018-08-03T11:09:06.295Z,19.57
2018-08-03T11:11:35.471Z,16.40
2018-08-03T11:14:04.671Z,25.37
2018-08-03T11:16:33.843Z,18.27
2018-08-03T11:19:03.198Z,28.00
2018-08-03T11:21:32.377Z,23.37
2018-08-03T11:24:01.699Z,17.93
2018-08-03T11:26:30.856Z,18.80
2018-08-03T11:29:00.037Z,22.13
2018-08-03T11:31:29.323Z,26.90
2018-08-03T11:33:58.427Z,18.33
2018-08-03T11:36:27.559Z,19.07
2018-08-03T11:38:56.727Z,17.97
2018-08-03T11:41:25.931Z,20.50
2018-08-03T11:43:55.120Z,17.90
2018-08-03T11:46:24.231Z,16.67
2018-08-03T11:48:53.904Z,16.70
2018-08-03T11:51:23.153Z,19.87
2018-08-03T11:53:52.451Z,15.90
2018-08-03T11:56:21.556Z,21.95
2018-08-03T11:58:51.021Z,23.57
2018-08-03T12:01:20.256Z,17.03
2018-08-03T12:03:49.436Z,19.07
2018-08-03T12:06:18.608Z,16.30
2018-08-03T12:08:47.776Z,17.70
2018-08-03T12:11:16.936Z,21.23
2018-08-03T12:13:46.086Z,18.20
2018-08-03T12:16:15.302Z,20.30
2018-08-03T12:18:44.584Z,15.32
2018-08-03T12:21:13.812Z,16.70
2018-08-03T12:23:42.993Z,14.83
2018-08-03T12:26:12.174Z,15.35
2018-08-03T12:28:41.290Z,19.75
2018-08-03T12:31:10.915Z,14.75
2018-08-03T12:33:39.986Z,13.00
2018-08-03T12:36:09.120Z,14.45
2018-08-03T12:38:38.316Z,12.90
2018-08-03T12:41:07.460Z,14.28
2018-08-03T12:43:36.608Z,13.80
2018-08-03T12:46:05.784Z,14.20
2018-08-03T12:48:34.872Z,13.95
2018-08-03T12:51:04.107Z,14.63
2018-08-03T12:53:33.247Z,13.93
2018-08-03T12:56:02.341Z,12.28
2018-08-03T12:58:31.427Z,12.73
2018-08-03T13:01:00.733Z,13.45
2018-08-03T13:03:29.883Z,14.83
2018-08-03T13:05:59.097Z,11.70
2018-08-03T13:08:28.521Z,13.40
2018-08-03T13:10:57.559Z,14.38
2018-08-03T13:13:26.707Z,12.53
2018-08-03T13:15:55.797Z,12.88
2018-08-03T13:18:24.867Z,11.83
2018-08-03T13:20:54.041Z,13.30
2018-08-03T13:23:23.210Z,12.13
2018-08-03T13:25:52.311Z,12.63
2018-08-03T13:28:21.411Z,12.33
2018-08-03T13:30:50.601Z,11.70
2018-08-03T13:33:19.751Z,12.90
2018-08-03T13:35:48.904Z,12.13
2018-08-03T13:38:18.057Z,12.47
2018-08-03T13:40:47.145Z,11.83
2018-08-03T13:43:16.300Z,13.18
2018-08-03T13:45:45.413Z,14.55
2018-08-03T13:48:14.486Z,11.73
2018-08-03T13:50:46.961Z,13.70
2018-08-03T13:53:16.468Z,11.20
2018-08-03T13:55:45.546Z,12.47
2018-08-03T13:58:14.677Z,11.63
2018-08-03T14:00:43.949Z,17.35
2018-08-03T14:03:13.026Z,11.88
2018-08-03T14:05:42.161Z,81.63
2018-08-03T14:08:11.323Z,125.65
2018-08-03T14:10:40.516Z,169.97
2018-08-03T14:13:09.672Z,30.37
2018-08-03T14:15:39.014Z,120.55
2018-08-03T14:18:08.146Z,32.78
2018-08-03T14:20:37.324Z,29.98
2018-08-03T14:23:06.606Z,64.82
2018-08-03T14:25:35.718Z,85.67
2018-08-03T14:28:04.854Z,99.65
2018-08-03T14:30:34.038Z,31.60
2018-08-03T14:33:03.144Z,84.95
2018-08-03T14:35:32.467Z,20.23
2018-08-03T14:38:01.655Z,105.97
2018-08-03T14:40:30.762Z,51.60
2018-08-03T14:42:59.846Z,43.00
2018-08-03T14:45:29.021Z,13.53
2018-08-03T14:47:58.107Z,13.53
2018-08-03T14:50:27.205Z,26.00
2018-08-03T14:52:56.295Z,14.58
2018-08-03T14:55:25.537Z,10.80
2018-08-03T14:57:54.679Z,15.38
2018-08-03T15:00:23.782Z,15.35
2018-08-03T15:02:52.954Z,12.45
2018-08-03T15:05:22.204Z,10.68
2018-08-03T15:07:51.429Z,10.63
2018-08-03T15:10:20.475Z,9.90
2018-08-03T15:12:49.581Z,11.25
2018-08-03T15:15:18.709Z,10.80
2018-08-03T15:17:47.876Z,18.73
2018-08-03T15:20:16.941Z,11.15
2018-08-03T15:22:46.061Z,164.62
2018-08-03T15:25:15.126Z,55.75
2018-08-03T15:27:44.266Z,25.55
2018-08-03T15:30:13.432Z,14.53
2018-08-03T15:32:42.536Z,14.90
2018-08-03T15:35:11.759Z,11.03
2018-08-03T15:37:40.820Z,9.83
2018-08-03T15:40:10.051Z,9.33
2018-08-03T15:42:39.286Z,9.80
2018-08-03T15:45:09.060Z,9.73
2018-08-03T15:47:38.272Z,9.95
2018-08-03T15:50:07.544Z,9.83
2018-08-03T15:52:36.699Z,9.53
2018-08-03T15:55:06.020Z,10.63
2018-08-03T15:57:35.416Z,9.08
2018-08-03T16:00:06.356Z,10.00
2018-08-03T16:02:35.612Z,9.70
2018-08-03T16:05:05.036Z,10.18
2018-08-03T16:07:34.145Z,8.85
2018-08-03T16:10:03.300Z,8.93
2018-08-03T16:12:32.450Z,9.95
2018-08-03T16:15:01.570Z,10.30
2018-08-03T16:17:30.671Z,10.68
2018-08-03T16:19:59.910Z,17.07
2018-08-03T16:22:30.439Z,8.90
2018-08-03T16:24:59.668Z,7.95
2018-08-03T16:27:28.772Z,8.60
2018-08-03T16:29:57.876Z,9.23
2018-08-03T16:32:26.960Z,10.08
2018-08-03T16:34:56.281Z,11.83
2018-08-03T16:37:25.463Z,15.50
2018-08-03T16:39:54.644Z,10.63
2018-08-03T16:42:23.769Z,10.20
2018-08-03T16:44:52.839Z,10.63
2018-08-03T16:47:21.943Z,11.40
2018-08-03T16:49:51.089Z,11.88
2018-08-03T16:52:20.337Z,9.18
2018-08-03T16:54:49.493Z,11.03
2018-08-03T16:57:18.623Z,10.45
2018-08-03T16:59:47.719Z,10.15
2018-08-03T17:02:16.850Z,11.12
2018-08-03T17:04:46.054Z,10.90
2018-08-03T17:07:15.195Z,9.90
2018-08-03T17:09:44.301Z,11.57
2018-08-03T17:12:13.388Z,12.68
2018-08-03T17:14:42.685Z,15.65
2018-08-03T17:17:11.826Z,233.20
2018-08-03T17:19:40.909Z,394.00
2018-08-03T17:22:09.996Z,235.45
2018-08-03T17:24:39.107Z,37.75
2018-08-03T17:27:08.205Z,86.50
2018-08-03T17:29:37.388Z,48.28
2018-08-03T17:32:06.675Z,30.75
2018-08-03T17:34:35.739Z,18.45
2018-08-03T17:37:04.926Z,35.17
2018-08-03T17:39:34.124Z,14.60
2018-08-03T17:42:03.252Z,13.60
2018-08-03T17:44:32.392Z,15.78
2018-08-03T17:47:01.445Z,18.87
2018-08-03T17:49:30.567Z,12.90
2018-08-03T17:51:59.619Z,14.30
2018-08-03T17:54:28.739Z,13.90
2018-08-03T17:56:57.939Z,13.18
2018-08-03T17:59:27.141Z,13.28
2018-08-03T18:01:56.219Z,12.98
2018-08-03T18:04:25.436Z,14.40
2018-08-03T18:06:54.508Z,13.48
2018-08-03T18:09:23.664Z,19.67
2018-08-03T18:11:52.712Z,13.72
2018-08-03T18:14:21.854Z,13.32
2018-08-03T18:16:51.009Z,13.68
2018-08-03T18:19:20.213Z,14.10
2018-08-03T18:21:49.316Z,14.98
2018-08-03T18:24:18.397Z,14.28
2018-08-03T18:26:48.315Z,13.50
2018-08-03T18:29:17.525Z,13.48
2018-08-03T18:31:46.717Z,12.73
2018-08-03T18:34:15.779Z,15.05
2018-08-03T18:36:44.900Z,14.47
2018-08-03T18:39:13.969Z,15.70
2018-08-03T18:41:43.089Z,13.40
2018-08-03T18:44:12.497Z,24.33
2018-08-03T18:46:41.601Z,17.37
2018-08-03T18:49:10.718Z,15.83
2018-08-03T18:51:39.840Z,16.53
2018-08-03T18:54:08.949Z,16.43
2018-08-03T18:56:38.082Z,93.13
2018-08-03T18:59:08.107Z,24.33
2018-08-03T19:01:37.197Z,15.00
2018-08-03T19:04:06.440Z,39.63
2018-08-03T19:06:35.560Z,99.27
2018-08-03T19:09:06.708Z,121.87
2018-08-03T19:11:35.808Z,226.00
2018-08-03T19:14:04.953Z,30.67
2018-08-03T19:16:34.072Z,198.60
2018-08-03T19:19:06.813Z,70.17
2018-08-03T19:21:36.363Z,164.27
2018-08-03T19:24:06.057Z,179.03
2018-08-03T19:26:35.196Z,130.97
2018-08-03T19:29:04.366Z,157.83
2018-08-03T19:31:33.482Z,82.00
2018-08-03T19:34:02.568Z,43.30
2018-08-03T19:36:31.634Z,29.37
2018-08-03T19:39:00.728Z,30.70
2018-08-03T19:41:29.884Z,35.00
2018-08-03T19:43:59.044Z,30.00
2018-08-03T19:46:28.312Z,28.73
2018-08-03T19:48:57.396Z,20.33
2018-08-03T19:51:26.516Z,21.40
2018-08-03T19:53:55.638Z,28.87
2018-08-03T19:56:24.768Z,33.50
2018-08-03T19:58:54.328Z,19.87
2018-08-03T20:01:23.599Z,21.73
2018-08-03T20:03:52.735Z,24.00
2018-08-03T20:06:22.419Z,21.80
2018-08-03T20:08:51.851Z,26.13
2018-08-03T20:11:21.228Z,20.70
2018-08-03T20:13:50.871Z,23.87
2018-08-03T20:16:20.458Z,22.37
2018-08-03T20:18:49.857Z,20.80
2018-08-03T20:21:19.274Z,16.87
2018-08-03T20:23:48.905Z,17.50
2018-08-03T20:26:18.216Z,19.90
2018-08-03T20:28:47.509Z,15.47
2018-08-03T20:31:17.036Z,19.07
2018-08-03T20:33:46.396Z,16.67
2018-08-03T20:36:15.707Z,22.67
2018-08-03T20:38:45.109Z,16.13
2018-08-03T20:41:14.485Z,20.23
2018-08-03T20:43:43.781Z,17.00
2018-08-03T20:46:13.321Z,13.80
2018-08-03T20:48:42.552Z,30.27
2018-08-03T20:51:11.738Z,20.53
2018-08-03T20:53:41.139Z,33.30
2018-08-03T20:56:10.795Z,28.23
2018-08-03T20:58:40.050Z,23.77
2018-08-03T21:01:09.185Z,32.53
2018-08-03T21:03:38.529Z,20.87
2018-08-03T21:06:08.210Z,20.93
2018-08-03T21:08:37.769Z,30.07
2018-08-03T21:11:06.951Z,19.20
2018-08-03T21:13:36.095Z,32.07
2018-08-03T21:16:05.337Z,31.87
2018-08-03T21:18:34.745Z,19.60
2018-08-03T21:21:04.164Z,25.57
2018-08-03T21:23:33.640Z,18.10
2018-08-03T21:26:02.965Z,20.10
2018-08-03T21:28:32.557Z,22.33
2018-08-03T21:31:02.095Z,24.33
2018-08-03T21:33:31.478Z,18.63
2018-08-03T21:36:00.900Z,22.90
2018-08-03T21:38:30.576Z,20.70
2018-08-03T21:40:59.945Z,31.37
2018-08-03T21:43:29.583Z,27.20
2018-08-03T21:45:58.766Z,18.40
2018-08-03T21:48:27.962Z,18.47
2018-08-03T21:50:57.102Z,20.70
2018-08-03T21:53:26.207Z,22.57
2018-08-03T21:55:55.314Z,20.50
2018-08-03T21:58:24.644Z,20.50
2018-08-03T22:00:53.739Z,17.50
2018-08-03T22:03:22.818Z,18.43
2018-08-03T22:05:51.898Z,18.80
2018-08-03T22:08:20.975Z,44.63
2018-08-03T22:10:50.166Z,20.77
2018-08-03T22:13:19.253Z,18.67
2018-08-03T22:15:48.316Z,21.73
2018-08-03T22:18:17.459Z,23.53
2018-08-03T22:20:46.522Z,19.90
2018-08-03T22:23:15.597Z,23.43
2018-08-03T22:25:44.679Z,25.23
2018-08-03T22:28:17.026Z,20.50
2018-08-03T22:30:46.112Z,22.30
2018-08-03T22:33:15.320Z,21.10
2018-08-03T22:35:44.499Z,19.93
2018-08-03T22:38:13.651Z,19.83
2018-08-03T22:40:42.719Z,23.87
2018-08-03T22:43:11.998Z,20.13
2018-08-03T22:45:41.351Z,19.73
2018-08-03T22:48:10.345Z,20.57
2018-08-03T22:50:39.490Z,18.30
2018-08-03T22:53:08.764Z,18.40
2018-08-03T22:55:37.914Z,19.67
2018-08-03T22:58:06.995Z,21.67
2018-08-03T23:00:36.094Z,20.80
2018-08-03T23:03:05.274Z,23.10
2018-08-03T23:05:34.362Z,22.40
2018-08-03T23:08:03.488Z,23.60
2018-08-03T23:10:32.558Z,19.80
2018-08-03T23:13:01.638Z,23.30
2018-08-03T23:15:30.796Z,20.40
2018-08-03T23:18:00.255Z,45.33
2018-08-03T23:20:29.451Z,117.57
2018-08-03T23:22:58.563Z,35.00
2018-08-03T23:25:27.596Z,34.47
2018-08-03T23:27:56.643Z,21.93
2018-08-03T23:30:25.860Z,20.83
2018-08-03T23:32:55.024Z,36.17
2018-08-03T23:35:24.148Z,24.67
2018-08-03T23:37:53.231Z,20.73
2018-08-03T23:40:22.316Z,22.63
2018-08-03T23:42:51.403Z,21.97
2018-08-03T23:45:20.547Z,22.93
2018-08-03T23:47:49.677Z,22.73
2018-08-03T23:50:19.527Z,21.73
2018-08-03T23:52:49.614Z,21.20
2018-08-03T23:55:18.731Z,21.00
2018-08-03T23:57:47.807Z,26.80
